Jacksonville, Illinois
Current Conditions -  °F | °C
As of 4:15 PM on Monday 20 Oct 2014 (Local Time) from KIJX Reporting Station
Clear Clear  
Wind Chill: 71°   Ceiling: Unl
Heat Index: 71°   Visibility: 10mi
Dew Point: 43°   Wind: 15mph
Humidity: 36%   Direction: 300°WNW
Pressure: 29.95"   Gusts: 22mph
Location:  39.75°N, 90.23°W
Report Text: KIJX 202115Z AUTO 30013G19KT 10SM CLR 21/06 A2995 RMK AO2 T02140059
Loading
Personal Weather Stations






























Interactive Weather Map New forecast layout! Learn more

10-Day Weather Forecast

Advertisements
Track Severe Weather on mobile